sensor_id;sensor_type;location;lat;lon;timestamp;pressure;altitude;pressure_sealevel;temperature;humidity
38558;BME280;24333;42.626;23.308;2022-07-23T00:38:04;92577.38;;;21.65;46.94
38558;BME280;24333;42.626;23.308;2022-07-23T00:40:30;92569.94;;;21.46;47.40
38558;BME280;24333;42.626;23.308;2022-07-23T00:42:57;92565.72;;;21.25;48.55
38558;BME280;24333;42.626;23.308;2022-07-23T00:45:24;92571.19;;;21.12;48.19
38558;BME280;24333;42.626;23.308;2022-07-23T00:47:49;92575.50;;;20.79;49.35
38558;BME280;24333;42.626;23.308;2022-07-23T04:14:11;92586.09;;;19.67;66.24
38558;BME280;24333;42.626;23.308;2022-07-23T04:16:37;92577.03;;;19.67;66.92
38558;BME280;24333;42.626;23.308;2022-07-23T04:19:02;92592.28;;;19.75;68.29
38558;BME280;24333;42.626;23.308;2022-07-23T04:21:29;92595.75;;;19.79;67.34
38558;BME280;24333;42.626;23.308;2022-07-23T06:32:42;92640.16;;;23.29;55.43
38558;BME280;24333;42.626;23.308;2022-07-23T06:35:11;92633.59;;;23.36;55.35
38558;BME280;24333;42.626;23.308;2022-07-23T06:51:07;92621.78;;;23.80;52.61
38558;BME280;24333;42.626;23.308;2022-07-23T09:18:33;92608.53;;;28.90;39.80
38558;BME280;24333;42.626;23.308;2022-07-23T09:34:32;92618.47;;;29.71;37.08
38558;BME280;24333;42.626;23.308;2022-07-23T09:37:13;92617.75;;;29.77;36.14
38558;BME280;24333;42.626;23.308;2022-07-23T09:39:39;92603.44;;;29.75;36.73
38558;BME280;24333;42.626;23.308;2022-07-23T09:42:23;92605.06;;;29.81;34.13
38558;BME280;24333;42.626;23.308;2022-07-23T09:44:58;92593.75;;;29.96;34.33
38558;BME280;24333;42.626;23.308;2022-07-23T09:50:36;92599.97;;;30.95;31.65
38558;BME280;24333;42.626;23.308;2022-07-23T09:58:16;92586.91;;;32.16;31.07
38558;BME280;24333;42.626;23.308;2022-07-23T10:00:44;92599.38;;;32.53;28.99
38558;BME280;24333;42.626;23.308;2022-07-23T10:03:30;92597.59;;;32.56;29.84
38558;BME280;24333;42.626;23.308;2022-07-23T10:08:32;92586.13;;;33.05;29.93
38558;BME280;24333;42.626;23.308;2022-07-23T10:18:43;92593.09;;;34.91;28.26
38558;BME280;24333;42.626;23.308;2022-07-23T10:21:09;92579.66;;;34.60;27.95
38558;BME280;24333;42.626;23.308;2022-07-23T10:23:50;92589.25;;;34.40;25.94
38558;BME280;24333;42.626;23.308;2022-07-23T10:29:47;92590.38;;;34.14;26.03
38558;BME280;24333;42.626;23.308;2022-07-23T10:32:26;92586.56;;;34.00;25.98
38558;BME280;24333;42.626;23.308;2022-07-23T10:35:36;92590.50;;;34.45;22.91
38558;BME280;24333;42.626;23.308;2022-07-23T10:40:51;92593.19;;;34.20;21.82
38558;BME280;24333;42.626;23.308;2022-07-23T10:43:18;92573.69;;;34.11;23.14
38558;BME280;24333;42.626;23.308;2022-07-23T11:15:17;92543.53;;;35.70;22.68
38558;BME280;24333;42.626;23.308;2022-07-23T11:25:35;92532.94;;;38.78;19.87
38558;BME280;24333;42.626;23.308;2022-07-23T11:28:15;92521.09;;;38.25;20.53
38558;BME280;24333;42.626;23.308;2022-07-23T11:30:51;92526.31;;;37.08;21.50
38558;BME280;24333;42.626;23.308;2022-07-23T11:33:18;92527.16;;;37.02;20.50
38558;BME280;24333;42.626;23.308;2022-07-23T11:35:46;92529.41;;;36.71;20.51
38558;BME280;24333;42.626;23.308;2022-07-23T11:41:07;92530.41;;;34.27;21.97
38558;BME280;24333;42.626;23.308;2022-07-23T11:43:58;92527.09;;;33.19;24.36
38558;BME280;24333;42.626;23.308;2022-07-23T11:46:25;92515.00;;;32.84;23.91
38558;BME280;24333;42.626;23.308;2022-07-23T11:49:02;92513.72;;;32.45;23.75
38558;BME280;24333;42.626;23.308;2022-07-23T11:51:28;92520.28;;;32.19;23.77
38558;BME280;24333;42.626;23.308;2022-07-23T11:53:53;92507.66;;;31.92;24.43
38558;BME280;24333;42.626;23.308;2022-07-23T11:56:18;92512.56;;;32.03;23.13
38558;BME280;24333;42.626;23.308;2022-07-23T11:58:54;92500.59;;;31.64;24.39
38558;BME280;24333;42.626;23.308;2022-07-23T12:03:59;92502.34;;;31.50;23.36
38558;BME280;24333;42.626;23.308;2022-07-23T12:06:25;92504.31;;;31.38;23.12
38558;BME280;24333;42.626;23.308;2022-07-23T12:08:50;92506.56;;;31.28;24.24
38558;BME280;24333;42.626;23.308;2022-07-23T12:11:15;92499.06;;;31.20;24.57
38558;BME280;24333;42.626;23.308;2022-07-23T12:13:41;92495.78;;;31.21;24.39
38558;BME280;24333;42.626;23.308;2022-07-23T12:36:09;92484.63;;;31.44;21.53
38558;BME280;24333;42.626;23.308;2022-07-23T12:38:43;92478.00;;;31.53;22.28
38558;BME280;24333;42.626;23.308;2022-07-23T12:41:11;92474.25;;;31.67;21.10
38558;BME280;24333;42.626;23.308;2022-07-23T12:43:41;92473.13;;;31.48;23.47
38558;BME280;24333;42.626;23.308;2022-07-23T12:46:11;92485.84;;;31.32;21.57
38558;BME280;24333;42.626;23.308;2022-07-23T12:48:55;92468.91;;;31.26;21.31
38558;BME280;24333;42.626;23.308;2022-07-23T12:51:29;92464.19;;;31.11;20.46
38558;BME280;24333;42.626;23.308;2022-07-23T12:54:15;92466.91;;;31.32;21.05
38558;BME280;24333;42.626;23.308;2022-07-23T12:56:44;92461.31;;;31.43;19.98
38558;BME280;24333;42.626;23.308;2022-07-23T12:59:12;92471.88;;;31.54;20.50
38558;BME280;24333;42.626;23.308;2022-07-23T13:01:59;92469.59;;;31.64;18.93
38558;BME280;24333;42.626;23.308;2022-07-23T13:04:26;92469.41;;;31.79;19.80
38558;BME280;24333;42.626;23.308;2022-07-23T13:06:57;92457.44;;;31.84;19.89
38558;BME280;24333;42.626;23.308;2022-07-23T13:09:30;92461.03;;;32.02;19.22
38558;BME280;24333;42.626;23.308;2022-07-23T13:11:56;92460.31;;;32.19;20.42
38558;BME280;24333;42.626;23.308;2022-07-23T13:14:23;92458.03;;;32.23;19.43
38558;BME280;24333;42.626;23.308;2022-07-23T13:16:50;92462.88;;;32.22;20.75
38558;BME280;24333;42.626;23.308;2022-07-23T13:19:35;92460.03;;;32.16;21.15
38558;BME280;24333;42.626;23.308;2022-07-23T13:22:13;92465.44;;;32.09;19.73
38558;BME280;24333;42.626;23.308;2022-07-23T13:24:39;92451.59;;;32.11;19.87
38558;BME280;24333;42.626;23.308;2022-07-23T13:27:04;92455.41;;;32.13;20.36
38558;BME280;24333;42.626;23.308;2022-07-23T13:29:31;92444.94;;;32.14;19.10
38558;BME280;24333;42.626;23.308;2022-07-23T13:31:57;92449.47;;;31.94;19.51
38558;BME280;24333;42.626;23.308;2022-07-23T13:34:22;92450.81;;;32.05;19.97
38558;BME280;24333;42.626;23.308;2022-07-23T13:36:48;92443.84;;;31.94;19.47
38558;BME280;24333;42.626;23.308;2022-07-23T13:39:22;92452.84;;;32.04;21.44
38558;BME280;24333;42.626;23.308;2022-07-23T13:41:48;92447.44;;;31.95;19.37
38558;BME280;24333;42.626;23.308;2022-07-23T13:44:13;92432.56;;;31.83;20.36
38558;BME280;24333;42.626;23.308;2022-07-23T13:46:38;92423.53;;;31.67;19.73
38558;BME280;24333;42.626;23.308;2022-07-23T13:49:09;92437.56;;;31.56;18.82
38558;BME280;24333;42.626;23.308;2022-07-23T13:51:56;92447.09;;;31.70;20.26
38558;BME280;24333;42.626;23.308;2022-07-23T13:54:23;92438.69;;;31.76;19.68
38558;BME280;24333;42.626;23.308;2022-07-23T13:56:49;92435.38;;;31.83;20.61
38558;BME280;24333;42.626;23.308;2022-07-23T13:59:14;92436.94;;;31.90;21.92
38558;BME280;24333;42.626;23.308;2022-07-23T14:01:39;92432.84;;;31.91;22.03
38558;BME280;24333;42.626;23.308;2022-07-23T14:04:05;92431.78;;;31.88;21.31
38558;BME280;24333;42.626;23.308;2022-07-23T14:06:30;92417.97;;;31.84;21.89
38558;BME280;24333;42.626;23.308;2022-07-23T14:08:56;92426.16;;;31.88;22.66
38558;BME280;24333;42.626;23.308;2022-07-23T14:11:21;92427.94;;;31.80;20.87
38558;BME280;24333;42.626;23.308;2022-07-23T14:13:46;92425.13;;;31.91;21.79
38558;BME280;24333;42.626;23.308;2022-07-23T14:16:12;92420.53;;;31.99;21.22
38558;BME280;24333;42.626;23.308;2022-07-23T14:18:38;92421.34;;;32.06;22.20
38558;BME280;24333;42.626;23.308;2022-07-23T14:21:03;92428.47;;;31.84;21.12
38558;BME280;24333;42.626;23.308;2022-07-23T14:23:28;92425.91;;;31.86;21.99
38558;BME280;24333;42.626;23.308;2022-07-23T14:25:55;92418.75;;;31.91;20.20
38558;BME280;24333;42.626;23.308;2022-07-23T14:28:20;92422.06;;;31.89;20.71
38558;BME280;24333;42.626;23.308;2022-07-23T14:30:46;92420.03;;;31.90;21.05
38558;BME280;24333;42.626;23.308;2022-07-23T14:33:11;92419.75;;;31.93;21.27
38558;BME280;24333;42.626;23.308;2022-07-23T14:36:02;92419.75;;;31.93;21.69
38558;BME280;24333;42.626;23.308;2022-07-23T14:38:27;92424.63;;;31.98;20.37
38558;BME280;24333;42.626;23.308;2022-07-23T14:40:55;92421.03;;;31.92;19.98
38558;BME280;24333;42.626;23.308;2022-07-23T14:43:21;92410.03;;;31.94;19.97
38558;BME280;24333;42.626;23.308;2022-07-23T14:45:46;92414.91;;;31.94;21.07
38558;BME280;24333;42.626;23.308;2022-07-23T14:48:12;92412.84;;;31.94;20.83
38558;BME280;24333;42.626;23.308;2022-07-23T14:50:37;92403.34;;;31.86;21.26
38558;BME280;24333;42.626;23.308;2022-07-23T14:53:03;92407.94;;;31.78;21.09
38558;BME280;24333;42.626;23.308;2022-07-23T14:55:31;92403.84;;;31.79;22.29
38558;BME280;24333;42.626;23.308;2022-07-23T14:57:56;92394.38;;;31.82;22.92
38558;BME280;24333;42.626;23.308;2022-07-23T15:00:22;92396.69;;;31.89;22.41
38558;BME280;24333;42.626;23.308;2022-07-23T15:02:47;92394.16;;;31.85;22.60
38558;BME280;24333;42.626;23.308;2022-07-23T15:05:33;92386.94;;;31.79;21.26
38558;BME280;24333;42.626;23.308;2022-07-23T15:08:06;92389.25;;;31.80;22.88
38558;BME280;24333;42.626;23.308;2022-07-23T15:10:31;92386.41;;;31.75;22.49
38558;BME280;24333;42.626;23.308;2022-07-23T15:12:57;92383.81;;;31.71;23.99
38558;BME280;24333;42.626;23.308;2022-07-23T15:15:22;92385.63;;;31.68;27.04
38558;BME280;24333;42.626;23.308;2022-07-23T15:17:48;92388.66;;;31.53;26.01
38558;BME280;24333;42.626;23.308;2022-07-23T15:20:13;92380.41;;;31.44;26.73
38558;BME280;24333;42.626;23.308;2022-07-23T15:22:51;92373.44;;;31.28;27.27
38558;BME280;24333;42.626;23.308;2022-07-23T15:25:16;92362.91;;;31.17;27.60
38558;BME280;24333;42.626;23.308;2022-07-23T15:27:42;92365.13;;;31.01;27.31
38558;BME280;24333;42.626;23.308;2022-07-23T15:30:08;92369.66;;;30.87;27.51
